Terminal Aerodrome Forecast
Issued by NWS Atlanta, GA

Home | Current Version | Previous Version | Text Only | Print | Product List | Glossary On
Versions: 1 2 3 4 5 6 7 8 9 10 11 12 13 14 15 16 17 18 19 20 21 22 23 24 25 26 27 28 29 30 31 32 33 34 35 36 37 38 39 40 41 42
000
FTUS42 KFFC 312148 AAD
TAFATL
TAF AMD
KATL 312148Z 3122/0124 14006KT P6SM VCSH SCT060
     FM010100 08004KT P6SM SCT100
     FM011400 15005KT P6SM FEW040
     FM011600 22006KT P6SM SCT050 PROB30 0120/0124 6SM TSRA
      BKN040CB=

USA.gov is the U.S. government's official web portal to all federal, state and local government web resources and services.